createdAt,value
2022-11-15T00:02:57.983Z,51.80
2022-11-15T00:06:04.960Z,44.93
2022-11-15T00:09:07.887Z,49.33
2022-11-15T00:12:14.419Z,50.23
2022-11-15T00:15:17.403Z,49.37
2022-11-15T00:18:20.741Z,44.17
2022-11-15T00:21:23.636Z,47.33
2022-11-15T00:24:26.661Z,54.80
2022-11-15T00:27:30.909Z,52.30
2022-11-15T00:30:34.074Z,53.27
2022-11-15T00:33:37.092Z,49.60
2022-11-15T00:36:40.029Z,47.63
2022-11-15T00:39:46.474Z,52.73
2022-11-15T00:42:50.901Z,48.87
2022-11-15T00:45:53.847Z,52.27
2022-11-15T00:48:56.740Z,48.60
2022-11-15T00:52:03.773Z,52.43
2022-11-15T00:55:07.556Z,49.23
2022-11-15T00:58:11.878Z,52.17
2022-11-15T01:01:16.729Z,53.07
2022-11-15T01:04:19.870Z,49.40
2022-11-15T01:07:22.885Z,52.37
2022-11-15T01:10:26.853Z,51.57
2022-11-15T01:13:38.856Z,49.40
2022-11-15T01:16:41.925Z,53.03
2022-11-15T01:19:45.011Z,53.03
2022-11-15T01:22:47.954Z,48.43
2022-11-15T01:25:50.943Z,47.27
2022-11-15T01:28:55.186Z,51.17
2022-11-15T01:31:58.181Z,49.83
2022-11-15T01:35:01.165Z,47.07
2022-11-15T01:38:05.283Z,45.17
2022-11-15T01:41:08.232Z,48.13
2022-11-15T01:44:48.277Z,53.03
2022-11-15T01:47:54.297Z,48.03
2022-11-15T01:50:57.456Z,57.63
2022-11-15T01:54:06.020Z,50.83
2022-11-15T01:57:11.352Z,51.30
2022-11-15T02:00:17.801Z,52.93
2022-11-15T02:03:23.910Z,50.27
2022-11-15T02:06:27.321Z,47.97
2022-11-15T02:09:30.293Z,51.53
2022-11-15T02:12:33.295Z,51.10
2022-11-15T02:15:46.120Z,52.73
2022-11-15T02:18:54.540Z,58.63
2022-11-15T02:22:12.513Z,51.67
2022-11-15T02:25:36.501Z,48.37
2022-11-15T02:28:58.073Z,53.80
2022-11-15T02:32:07.836Z,56.13
2022-11-15T02:35:20.636Z,50.43
2022-11-15T02:38:31.670Z,52.90
2022-11-15T02:41:41.980Z,52.43
2022-11-15T02:44:46.908Z,55.40
2022-11-15T02:47:54.041Z,51.60
2022-11-15T02:50:59.521Z,51.03
2022-11-15T02:54:02.469Z,53.00
2022-11-15T02:57:09.191Z,50.10
2022-11-15T03:00:14.779Z,48.23
2022-11-15T03:03:49.353Z,53.87
2022-11-15T03:06:55.720Z,50.13
2022-11-15T03:10:06.512Z,57.10
2022-11-15T03:13:19.106Z,50.23
2022-11-15T03:16:26.940Z,45.70
2022-11-15T03:19:45.404Z,46.33
2022-11-15T03:22:51.453Z,51.37
2022-11-15T03:25:56.885Z,53.17
2022-11-15T03:29:05.398Z,49.73
2022-11-15T03:32:15.692Z,44.97
2022-11-15T03:35:22.881Z,53.37
2022-11-15T03:38:27.877Z,49.73
2022-11-15T03:41:36.678Z,54.70
2022-11-15T03:44:44.841Z,50.63
2022-11-15T03:47:51.280Z,52.90
2022-11-15T03:50:56.245Z,54.37
2022-11-15T03:53:59.260Z,51.87
2022-11-15T03:57:02.258Z,51.40
2022-11-15T04:00:06.012Z,51.00
2022-11-15T04:03:09.329Z,51.40
2022-11-15T04:06:13.655Z,52.27
2022-11-15T04:09:17.049Z,53.47
2022-11-15T04:12:31.700Z,52.07
2022-11-15T04:15:35.270Z,57.77
2022-11-15T04:18:38.337Z,45.50
2022-11-15T04:25:32.076Z,55.27
2022-11-15T04:28:35.868Z,48.20
2022-11-15T04:31:38.852Z,49.13
2022-11-15T04:34:41.791Z,47.47
2022-11-15T04:37:49.425Z,51.87
2022-11-15T04:40:52.739Z,48.43
2022-11-15T04:43:55.831Z,50.10
2022-11-15T04:46:59.275Z,50.17
2022-11-15T04:50:02.255Z,50.87
2022-11-15T04:53:06.946Z,50.10
2022-11-15T04:56:10.107Z,49.30
2022-11-15T04:59:13.108Z,51.83
2022-11-15T05:02:16.719Z,50.97
2022-11-15T05:05:22.114Z,52.93
2022-11-15T05:08:26.678Z,50.00
2022-11-15T05:11:29.616Z,52.30
2022-11-15T05:14:32.517Z,53.37
2022-11-15T05:17:35.443Z,51.20
2022-11-15T05:20:38.379Z,52.47
2022-11-15T05:23:43.313Z,53.20
2022-11-15T05:26:46.188Z,52.67
2022-11-15T05:29:49.666Z,46.00
2022-11-15T05:32:52.984Z,42.63
2022-11-15T05:36:02.253Z,46.30
2022-11-15T05:39:09.476Z,42.87
2022-11-15T05:42:15.892Z,45.40
2022-11-15T05:45:23.876Z,55.73
2022-11-15T05:48:29.915Z,46.17
2022-11-15T05:51:32.941Z,51.23
2022-11-15T05:54:38.537Z,50.53
2022-11-15T05:57:41.513Z,50.97
2022-11-15T06:00:45.136Z,52.70
2022-11-15T06:03:48.108Z,44.47
2022-11-15T06:06:51.104Z,44.47
2022-11-15T06:09:55.486Z,50.47
2022-11-15T06:12:59.789Z,50.23
2022-11-15T06:16:07.744Z,52.93
2022-11-15T06:19:10.636Z,52.20
2022-11-15T06:22:13.545Z,56.57
2022-11-15T06:25:27.218Z,52.10
2022-11-15T06:28:30.935Z,47.90
2022-11-15T06:31:35.082Z,53.80
2022-11-15T06:34:38.079Z,54.30
2022-11-15T06:37:41.111Z,61.03
2022-11-15T06:40:45.405Z,57.37
2022-11-15T06:43:48.415Z,58.03
2022-11-15T06:46:51.677Z,55.47
2022-11-15T06:49:54.707Z,54.70
2022-11-15T06:53:02.153Z,47.47
2022-11-15T06:56:10.245Z,50.37
2022-11-15T06:59:13.385Z,53.13
2022-11-15T07:02:16.260Z,54.27
2022-11-15T07:05:19.384Z,53.07
2022-11-15T07:08:22.537Z,53.63
2022-11-15T07:11:26.848Z,47.30
2022-11-15T07:14:29.733Z,52.23
2022-11-15T07:17:34.294Z,54.20
2022-11-15T07:20:37.427Z,52.30
2022-11-15T07:23:41.292Z,55.50
2022-11-15T07:26:45.593Z,48.37
2022-11-15T07:29:48.569Z,50.87
2022-11-15T07:32:55.817Z,50.20
2022-11-15T07:36:03.495Z,52.53
2022-11-15T07:39:06.444Z,49.83
2022-11-15T07:42:29.765Z,56.13
2022-11-15T07:45:34.375Z,52.10
2022-11-15T07:48:44.135Z,57.60
2022-11-15T07:51:47.783Z,50.47
2022-11-15T07:54:50.667Z,54.20
2022-11-15T07:57:55.380Z,53.13
2022-11-15T08:00:58.376Z,47.97
2022-11-15T08:04:01.326Z,53.40
2022-11-15T08:07:04.275Z,53.47
2022-11-15T08:10:08.894Z,51.13
2022-11-15T08:13:14.509Z,44.27
2022-11-15T08:16:17.450Z,50.33
2022-11-15T08:19:20.423Z,41.40
2022-11-15T08:22:23.331Z,50.73
2022-11-15T08:25:27.259Z,44.90
2022-11-15T08:28:31.633Z,49.53
2022-11-15T08:31:34.549Z,50.90
2022-11-15T08:34:37.459Z,46.53
2022-11-15T08:37:40.359Z,47.50
2022-11-15T08:40:43.280Z,42.00
2022-11-15T08:43:47.747Z,46.97
2022-11-15T08:46:56.777Z,43.53
2022-11-15T08:49:59.801Z,45.10
2022-11-15T08:53:07.425Z,46.53
2022-11-15T08:56:11.624Z,41.33
2022-11-15T08:59:16.090Z,41.77
2022-11-15T09:02:19.070Z,38.97
2022-11-15T09:05:22.166Z,42.87
2022-11-15T09:08:46.469Z,37.47
2022-11-15T09:11:48.344Z,38.83
2022-11-15T09:14:52.664Z,37.63
2022-11-15T09:18:07.567Z,38.23
2022-11-15T09:21:11.715Z,39.00
2022-11-15T09:24:18.246Z,34.00
2022-11-15T09:27:30.060Z,32.93
2022-11-15T09:30:34.395Z,32.37
2022-11-15T09:33:39.103Z,32.80
2022-11-15T09:36:42.190Z,28.13
2022-11-15T09:39:45.175Z,31.57
2022-11-15T09:43:06.934Z,31.17
2022-11-15T09:46:19.825Z,27.80
2022-11-15T09:49:24.119Z,25.90
2022-11-15T09:52:27.424Z,23.90
2022-11-15T09:55:39.026Z,23.00
2022-11-15T09:58:52.165Z,24.80
2022-11-15T10:02:06.187Z,23.63
2022-11-15T10:05:14.418Z,23.20
2022-11-15T10:08:33.665Z,24.53
2022-11-15T10:11:40.836Z,24.67
2022-11-15T10:14:44.354Z,23.57
2022-11-15T10:18:06.490Z,22.57
2022-11-15T10:21:22.370Z,23.33
2022-11-15T10:24:29.686Z,22.37
2022-11-15T10:27:33.222Z,20.53
2022-11-15T10:30:39.089Z,22.73
2022-11-15T10:33:43.443Z,22.77
2022-11-15T10:36:50.297Z,23.67
2022-11-15T10:40:05.781Z,22.23
2022-11-15T10:43:16.573Z,20.90
2022-11-15T10:46:45.754Z,22.90
2022-11-15T10:50:02.025Z,23.00
2022-11-15T10:53:05.198Z,22.23
2022-11-15T10:56:13.866Z,20.80
2022-11-15T10:59:21.294Z,26.10
2022-11-15T11:02:33.873Z,23.30
2022-11-15T11:05:42.365Z,21.90
2022-11-15T11:08:58.223Z,19.73
2022-11-15T11:12:02.322Z,21.07
2022-11-15T11:15:16.194Z,20.23
2022-11-15T11:18:26.027Z,18.47
2022-11-15T11:21:42.311Z,20.83
2022-11-15T11:24:50.179Z,21.47
2022-11-15T11:28:03.853Z,22.77
2022-11-15T11:31:21.559Z,21.13
2022-11-15T11:34:43.261Z,19.90
2022-11-15T11:37:51.985Z,19.53
2022-11-15T11:41:05.434Z,21.00
2022-11-15T11:44:21.305Z,20.90
2022-11-15T11:47:28.475Z,19.70
2022-11-15T11:50:32.243Z,19.47
2022-11-15T11:53:42.315Z,22.53
2022-11-15T11:56:47.312Z,21.20
2022-11-15T11:59:55.630Z,21.67
2022-11-15T12:03:07.579Z,19.27
2022-11-15T12:06:29.705Z,19.20
2022-11-15T12:09:38.909Z,18.57
2022-11-15T12:12:51.155Z,19.00
2022-11-15T12:16:02.881Z,18.93
2022-11-15T12:19:09.651Z,18.53
2022-11-15T12:22:19.179Z,15.80
2022-11-15T12:25:30.223Z,19.53
2022-11-15T12:28:58.380Z,19.23
2022-11-15T12:32:26.260Z,19.57
2022-11-15T12:35:34.481Z,17.33
2022-11-15T12:38:56.824Z,17.50
2022-11-15T12:42:33.231Z,18.57
2022-11-15T12:45:39.503Z,18.27
2022-11-15T12:49:01.011Z,20.57
2022-11-15T12:52:09.893Z,18.30
2022-11-15T12:55:33.550Z,19.50
2022-11-15T12:58:44.387Z,19.00
2022-11-15T13:02:01.227Z,17.70
2022-11-15T13:05:55.801Z,18.60
2022-11-15T13:08:58.906Z,21.80
2022-11-15T13:12:03.057Z,18.90
2022-11-15T13:15:39.641Z,16.90
2022-11-15T13:18:55.554Z,21.03
2022-11-15T13:22:15.908Z,18.87
2022-11-15T13:25:23.628Z,17.27
2022-11-15T13:28:34.788Z,19.97
2022-11-15T13:31:45.248Z,18.43
2022-11-15T13:34:53.705Z,17.20
2022-11-15T13:37:58.773Z,20.10
2022-11-15T13:41:15.909Z,21.20
2022-11-15T13:44:22.703Z,15.17
2022-11-15T13:47:28.919Z,16.67
2022-11-15T13:50:36.571Z,18.60
2022-11-15T13:53:43.141Z,17.10
2022-11-15T13:56:50.535Z,15.80
2022-11-15T13:59:56.390Z,14.80
2022-11-15T14:03:06.094Z,13.73
2022-11-15T14:06:13.009Z,14.93
2022-11-15T14:09:38.355Z,16.00
2022-11-15T14:12:41.283Z,22.00
2022-11-15T14:15:45.702Z,17.23
2022-11-15T14:18:50.684Z,19.47
2022-11-15T14:22:15.020Z,16.40
2022-11-15T14:25:21.475Z,17.03
2022-11-15T14:28:34.303Z,16.10
2022-11-15T14:31:42.582Z,18.33
2022-11-15T14:34:47.112Z,16.70
2022-11-15T14:37:51.802Z,17.80
2022-11-15T14:41:00.807Z,16.90
2022-11-15T14:44:03.911Z,17.83
2022-11-15T14:47:06.927Z,26.67
2022-11-15T14:50:13.974Z,16.57
2022-11-15T14:53:20.851Z,16.90
2022-11-15T14:56:23.773Z,17.50
2022-11-15T14:59:26.796Z,18.83
2022-11-15T15:02:29.947Z,17.97
2022-11-15T15:05:35.255Z,18.97
2022-11-15T15:08:39.531Z,19.47
2022-11-15T15:11:42.457Z,17.57
2022-11-15T15:14:45.770Z,26.37
2022-11-15T15:17:48.686Z,20.97
2022-11-15T15:21:00.879Z,23.50
2022-11-15T15:24:05.689Z,24.63
2022-11-15T15:27:08.612Z,22.47
2022-11-15T15:30:12.807Z,21.53
2022-11-15T15:33:16.331Z,19.30
2022-11-15T15:36:20.795Z,20.97
2022-11-15T15:39:25.068Z,22.13
2022-11-15T15:42:28.019Z,19.40
2022-11-15T15:45:31.151Z,22.83
2022-11-15T15:48:38.054Z,24.80
2022-11-15T15:51:40.995Z,31.40
2022-11-15T15:54:45.499Z,22.20
2022-11-15T15:57:48.730Z,24.47
2022-11-15T16:00:51.777Z,21.00
2022-11-15T16:03:54.658Z,17.80
2022-11-15T16:07:01.278Z,20.57
2022-11-15T16:10:20.699Z,21.87
2022-11-15T16:13:24.173Z,26.37
2022-11-15T16:16:27.182Z,20.93
2022-11-15T16:19:30.121Z,18.90
2022-11-15T16:22:33.087Z,22.37
2022-11-15T16:25:43.959Z,27.73
2022-11-15T16:28:46.909Z,28.70
2022-11-15T16:31:49.791Z,27.90
2022-11-15T16:34:52.728Z,23.87
2022-11-15T16:37:55.708Z,27.20
2022-11-15T16:41:00.320Z,25.87
2022-11-15T16:44:03.407Z,23.77
2022-11-15T16:47:06.531Z,28.67
2022-11-15T16:50:19.563Z,26.40
2022-11-15T16:53:22.504Z,26.30
2022-11-15T16:56:29.971Z,27.47
2022-11-15T16:59:38.210Z,32.37
2022-11-15T17:02:41.619Z,33.50
2022-11-15T17:05:44.529Z,30.10
2022-11-15T17:08:48.095Z,33.07
2022-11-15T17:11:52.995Z,39.90
2022-11-15T17:14:55.874Z,34.50
2022-11-15T17:17:58.876Z,41.97
2022-11-15T17:21:06.716Z,39.77
2022-11-15T17:24:10.511Z,43.53
2022-11-15T17:27:15.183Z,39.90
2022-11-15T17:30:18.755Z,41.07
2022-11-15T17:33:21.663Z,44.67
2022-11-15T17:36:24.580Z,48.93
2022-11-15T17:39:27.518Z,45.00
2022-11-15T17:42:34.729Z,44.67
2022-11-15T17:45:42.271Z,46.00
2022-11-15T17:48:45.337Z,49.77
2022-11-15T17:51:50.185Z,45.77
2022-11-15T17:54:53.282Z,48.00
2022-11-15T17:57:57.619Z,47.57
2022-11-15T18:01:07.670Z,49.17
2022-11-15T18:04:10.736Z,43.67
2022-11-15T18:07:14.157Z,49.33
2022-11-15T18:10:17.697Z,47.70
2022-11-15T18:13:21.978Z,48.20
2022-11-15T18:16:36.009Z,48.67
2022-11-15T18:19:40.334Z,46.00
2022-11-15T18:22:43.365Z,48.97
2022-11-15T18:25:53.031Z,43.80
2022-11-15T18:29:03.007Z,45.83
2022-11-15T18:32:11.527Z,42.30
2022-11-15T18:35:19.835Z,44.80
2022-11-15T18:38:22.752Z,47.63
2022-11-15T18:41:28.568Z,45.27
2022-11-15T18:44:33.063Z,44.60
2022-11-15T18:47:37.561Z,48.23
2022-11-15T18:50:40.522Z,45.87
2022-11-15T18:53:44.284Z,46.03
2022-11-15T18:56:47.508Z,45.03
2022-11-15T18:59:51.838Z,45.37
2022-11-15T19:02:55.821Z,48.10
2022-11-15T19:06:03.322Z,50.97
2022-11-15T19:09:06.802Z,52.43
2022-11-15T19:12:09.757Z,53.13
2022-11-15T19:15:14.216Z,47.30
2022-11-15T19:18:17.190Z,48.50
2022-11-15T19:21:20.160Z,53.23
2022-11-15T19:24:24.006Z,50.50
2022-11-15T19:27:26.948Z,50.03
2022-11-15T19:30:31.285Z,57.87
2022-11-15T19:33:35.900Z,47.03
2022-11-15T19:36:41.410Z,52.23
2022-11-15T19:39:44.346Z,57.23
2022-11-15T19:42:50.101Z,59.97
2022-11-15T19:46:00.983Z,57.70
2022-11-15T19:49:07.062Z,56.03
2022-11-15T19:52:10.008Z,53.10
2022-11-15T19:55:14.564Z,55.23
2022-11-15T19:58:20.401Z,55.30
2022-11-15T20:01:26.276Z,57.60
2022-11-15T20:04:29.658Z,57.20
2022-11-15T20:07:32.654Z,57.60
2022-11-15T20:10:36.087Z,59.63
2022-11-15T20:13:39.388Z,56.03
2022-11-15T20:16:43.841Z,54.20
2022-11-15T20:19:46.724Z,55.00
2022-11-15T20:22:49.681Z,54.03
2022-11-15T20:25:52.652Z,55.43
2022-11-15T20:29:01.015Z,54.77
2022-11-15T20:32:05.679Z,56.33
2022-11-15T20:35:09.478Z,54.83
2022-11-15T20:38:21.845Z,54.63
2022-11-15T20:41:24.887Z,50.93
2022-11-15T20:44:30.571Z,54.80
2022-11-15T20:47:34.920Z,48.90
2022-11-15T20:50:44.865Z,52.50
2022-11-15T20:53:51.206Z,55.23
2022-11-15T20:56:55.207Z,54.47
2022-11-15T21:00:01.809Z,53.93
2022-11-15T21:03:10.263Z,52.50
2022-11-15T21:06:14.195Z,50.63
2022-11-15T21:09:34.927Z,49.50
2022-11-15T21:12:37.822Z,49.40
2022-11-15T21:15:40.757Z,56.03
2022-11-15T21:18:45.109Z,52.67
2022-11-15T21:21:48.116Z,49.33
2022-11-15T21:24:54.140Z,58.13
2022-11-15T21:27:57.036Z,50.10
2022-11-15T21:31:01.601Z,50.03
2022-11-15T21:34:07.215Z,50.80
2022-11-15T21:37:11.781Z,53.57
2022-11-15T21:40:15.035Z,53.80
2022-11-15T21:43:18.479Z,59.87
2022-11-15T21:46:21.406Z,50.30
2022-11-15T21:49:25.895Z,54.77
2022-11-15T21:52:28.854Z,55.47
2022-11-15T21:55:31.769Z,55.90
2022-11-15T21:58:37.057Z,53.07
2022-11-15T22:02:00.912Z,51.70
2022-11-15T22:05:07.623Z,54.70
2022-11-15T22:08:12.356Z,56.47
2022-11-15T22:11:15.895Z,51.70
2022-11-15T22:14:18.868Z,49.70
2022-11-15T22:17:21.859Z,51.87
2022-11-15T22:23:48.749Z,53.87
2022-11-15T22:26:52.099Z,52.00
2022-11-15T22:29:54.855Z,48.90
2022-11-15T22:33:08.728Z,49.23
2022-11-15T22:36:14.055Z,50.10
2022-11-15T22:39:16.861Z,51.23
2022-11-15T22:42:23.754Z,56.93
2022-11-15T22:45:26.933Z,55.47
2022-11-15T22:48:32.924Z,54.23
2022-11-15T22:51:40.368Z,58.90
2022-11-15T22:54:43.182Z,58.13
2022-11-15T22:57:46.177Z,61.00
2022-11-15T23:00:54.499Z,57.20
2022-11-15T23:03:57.664Z,59.67
2022-11-15T23:07:01.890Z,59.83
2022-11-15T23:10:26.117Z,57.40
2022-11-15T23:13:32.749Z,56.90
2022-11-15T23:16:39.657Z,62.10
2022-11-15T23:19:42.439Z,58.07
2022-11-15T23:22:49.879Z,55.13
2022-11-15T23:25:59.275Z,61.10
2022-11-15T23:29:02.121Z,55.43
2022-11-15T23:32:34.205Z,53.50
2022-11-15T23:35:36.968Z,53.27
2022-11-15T23:38:41.110Z,59.60
2022-11-15T23:41:44.038Z,62.13
2022-11-15T23:44:46.817Z,55.93
2022-11-15T23:47:49.707Z,54.73
2022-11-15T23:50:52.465Z,55.57
2022-11-15T23:53:56.587Z,56.60
2022-11-15T23:57:11.802Z,68.80
